createdAt,value
2019-05-22T00:00:31.326Z,6.07
2019-05-22T00:03:03.338Z,5.60
2019-05-22T00:05:38.148Z,5.70
2019-05-22T00:08:13.364Z,6.37
2019-05-22T00:10:46.251Z,6.07
2019-05-22T00:13:18.646Z,5.60
2019-05-22T00:15:50.136Z,6.00
2019-05-22T00:18:21.519Z,5.47
2019-05-22T00:20:51.518Z,5.03
2019-05-22T00:23:22.716Z,4.53
2019-05-22T00:25:54.445Z,5.30
2019-05-22T00:28:25.526Z,4.73
2019-05-22T00:30:57.416Z,4.43
2019-05-22T00:33:27.468Z,5.63
2019-05-22T00:35:59.566Z,5.20
2019-05-22T00:38:31.673Z,5.70
2019-05-22T00:41:03.294Z,5.83
2019-05-22T00:43:34.967Z,6.33
2019-05-22T00:46:05.411Z,5.67
2019-05-22T00:48:36.768Z,5.60
2019-05-22T00:51:10.237Z,5.00
2019-05-22T00:53:44.346Z,5.03
2019-05-22T00:56:17.017Z,4.80
2019-05-22T00:58:50.327Z,4.30
2019-05-22T01:01:22.243Z,4.40
2019-05-22T01:03:53.761Z,3.70
2019-05-22T01:06:25.727Z,3.43
2019-05-22T01:08:56.824Z,3.70
2019-05-22T01:11:29.069Z,4.83
2019-05-22T01:14:01.500Z,4.80
2019-05-22T01:16:32.924Z,4.93
2019-05-22T01:19:03.318Z,4.70
2019-05-22T01:21:33.764Z,4.47
2019-05-22T01:24:04.600Z,4.93
2019-05-22T01:26:36.000Z,5.03
2019-05-22T01:29:08.394Z,4.20
2019-05-22T01:31:40.490Z,4.20
2019-05-22T01:34:16.208Z,4.70
2019-05-22T01:36:47.319Z,4.60
2019-05-22T01:39:30.805Z,4.30
2019-05-22T01:42:02.823Z,4.50
2019-05-22T01:44:34.725Z,3.70
2019-05-22T01:47:09.298Z,4.23
2019-05-22T01:49:43.779Z,3.97
2019-05-22T01:52:15.482Z,3.60
2019-05-22T01:54:46.627Z,4.23
2019-05-22T01:57:18.045Z,4.33
2019-05-22T01:59:48.111Z,3.80
2019-05-22T02:02:19.443Z,4.30
2019-05-22T02:04:49.237Z,4.30
2019-05-22T02:07:20.793Z,3.83
2019-05-22T02:09:52.461Z,4.40
2019-05-22T02:12:26.906Z,4.23
2019-05-22T02:14:58.324Z,4.00
2019-05-22T02:17:31.905Z,4.33
2019-05-22T02:20:02.404Z,4.50
2019-05-22T02:22:32.326Z,4.77
2019-05-22T02:25:02.885Z,4.67
2019-05-22T02:27:34.350Z,5.00
2019-05-22T02:30:05.745Z,4.67
2019-05-22T02:32:37.948Z,5.00
2019-05-22T02:35:09.398Z,5.63
2019-05-22T02:37:41.264Z,5.53
2019-05-22T02:40:23.929Z,5.13
2019-05-22T02:42:54.498Z,6.17
2019-05-22T02:45:25.607Z,6.73
2019-05-22T02:47:57.214Z,6.73
2019-05-22T02:50:27.804Z,7.07
2019-05-22T02:52:59.314Z,7.70
2019-05-22T02:55:29.036Z,8.80
2019-05-22T02:57:59.310Z,8.50
2019-05-22T03:00:33.781Z,9.07
2019-05-22T03:03:06.256Z,9.83
2019-05-22T03:05:37.672Z,10.63
2019-05-22T03:08:09.614Z,12.40
2019-05-22T03:10:39.422Z,12.80
2019-05-22T03:13:11.081Z,13.17
2019-05-22T03:15:42.440Z,14.20
2019-05-22T03:18:13.918Z,15.33
2019-05-22T03:20:43.720Z,15.20
2019-05-22T03:23:33.636Z,15.23
2019-05-22T03:26:04.415Z,14.93
2019-05-22T03:28:35.123Z,16.70
2019-05-22T03:31:07.036Z,16.67
2019-05-22T03:33:37.303Z,15.47
2019-05-22T03:36:16.175Z,14.47
2019-05-22T03:38:46.918Z,14.73
2019-05-22T03:41:18.622Z,15.03
2019-05-22T03:43:50.886Z,14.87
2019-05-22T03:46:23.771Z,15.10
2019-05-22T03:48:56.824Z,14.30
2019-05-22T03:51:26.774Z,14.97
2019-05-22T03:53:57.272Z,14.20
2019-05-22T03:56:27.129Z,14.37
2019-05-22T03:58:57.360Z,14.87
2019-05-22T04:01:28.947Z,13.63
2019-05-22T04:03:59.780Z,15.10
2019-05-22T04:06:29.775Z,15.43
2019-05-22T04:09:02.615Z,14.17
2019-05-22T04:11:38.850Z,15.10
2019-05-22T04:14:08.871Z,15.40
2019-05-22T04:16:38.886Z,15.27
2019-05-22T04:19:09.742Z,15.93
2019-05-22T04:21:39.623Z,16.60
2019-05-22T04:24:09.852Z,16.17
2019-05-22T04:26:39.794Z,16.77
2019-05-22T04:29:09.799Z,17.50
2019-05-22T04:31:46.181Z,15.73
2019-05-22T04:34:16.105Z,17.53
2019-05-22T04:36:47.035Z,17.63
2019-05-22T04:39:22.275Z,18.70
2019-05-22T04:41:52.845Z,17.33
2019-05-22T04:44:22.947Z,18.27
2019-05-22T04:46:52.855Z,19.83
2019-05-22T04:49:22.725Z,17.93
2019-05-22T04:51:52.719Z,17.33
2019-05-22T04:54:22.485Z,18.50
2019-05-22T04:56:53.607Z,18.03
2019-05-22T04:59:24.205Z,17.27
2019-05-22T05:01:54.054Z,17.73
2019-05-22T05:04:24.298Z,17.27
2019-05-22T05:06:54.859Z,17.30
2019-05-22T05:09:25.413Z,15.83
2019-05-22T05:11:55.719Z,16.00
2019-05-22T05:14:26.321Z,15.13
2019-05-22T05:16:56.594Z,15.27
2019-05-22T05:19:27.274Z,14.60
2019-05-22T05:21:57.186Z,15.40
2019-05-22T05:24:27.016Z,14.37
2019-05-22T05:26:58.019Z,13.40
2019-05-22T05:29:29.608Z,13.17
2019-05-22T05:32:00.554Z,12.80
2019-05-22T05:34:39.585Z,13.03
2019-05-22T05:37:10.306Z,12.73
2019-05-22T05:39:44.155Z,11.87
2019-05-22T05:42:13.919Z,12.60
2019-05-22T05:44:43.814Z,10.87
2019-05-22T05:47:19.176Z,11.17
2019-05-22T05:49:50.562Z,11.10
2019-05-22T05:52:21.248Z,11.27
2019-05-22T05:54:51.685Z,11.20
2019-05-22T05:57:40.742Z,11.70
2019-05-22T06:00:33.248Z,10.70
2019-05-22T06:03:36.042Z,11.67
2019-05-22T06:06:25.127Z,12.97
2019-05-22T06:08:56.780Z,10.97
2019-05-22T06:11:42.788Z,12.83
2019-05-22T06:14:21.461Z,12.67
2019-05-22T06:17:07.816Z,12.50
2019-05-22T06:19:43.873Z,11.90
2019-05-22T06:22:15.121Z,12.77
2019-05-22T06:25:01.484Z,12.53
2019-05-22T06:27:43.720Z,12.50
2019-05-22T06:30:17.674Z,11.83
2019-05-22T06:33:13.248Z,12.77
2019-05-22T06:35:46.063Z,12.80
2019-05-22T06:38:19.142Z,12.93
2019-05-22T06:40:49.310Z,11.63
2019-05-22T06:43:25.775Z,13.80
2019-05-22T06:46:01.377Z,13.63
2019-05-22T06:48:31.097Z,13.50
2019-05-22T06:51:00.930Z,13.93
2019-05-22T06:53:30.695Z,14.10
2019-05-22T06:56:00.489Z,13.70
2019-05-22T06:58:31.153Z,13.90
2019-05-22T07:01:01.180Z,13.50
2019-05-22T07:03:33.086Z,15.27
2019-05-22T07:06:03.981Z,14.47
2019-05-22T07:08:33.898Z,12.63
2019-05-22T07:11:04.589Z,14.00
2019-05-22T07:13:35.587Z,12.67
2019-05-22T07:16:06.167Z,12.77
2019-05-22T07:18:36.359Z,12.70
2019-05-22T07:21:06.695Z,12.67
2019-05-22T07:23:37.221Z,11.83
2019-05-22T07:26:08.382Z,11.97
2019-05-22T07:28:38.784Z,13.37
2019-05-22T07:31:08.568Z,12.53
2019-05-22T07:33:38.333Z,12.60
2019-05-22T07:36:12.122Z,11.03
2019-05-22T07:38:40.338Z,11.97
2019-05-22T07:41:10.445Z,11.50
2019-05-22T07:43:41.900Z,12.10
2019-05-22T07:46:12.044Z,12.10
2019-05-22T07:48:46.270Z,11.90
2019-05-22T07:51:17.512Z,11.40
2019-05-22T07:53:47.476Z,13.77
2019-05-22T07:56:18.470Z,11.93
2019-05-22T07:58:48.821Z,11.23
2019-05-22T08:01:20.396Z,11.17
2019-05-22T08:03:50.874Z,11.27
2019-05-22T08:06:21.835Z,12.07
2019-05-22T08:08:54.066Z,11.30
2019-05-22T08:11:26.271Z,12.53
2019-05-22T08:13:57.342Z,11.03
2019-05-22T08:16:28.381Z,12.07
2019-05-22T08:18:58.120Z,12.73
2019-05-22T08:21:28.272Z,11.57
2019-05-22T08:23:59.019Z,12.43
2019-05-22T08:26:29.766Z,12.20
2019-05-22T08:29:01.710Z,12.17
2019-05-22T08:31:32.247Z,11.87
2019-05-22T08:34:03.056Z,13.33
2019-05-22T08:36:33.196Z,12.80
2019-05-22T08:39:03.827Z,12.60
2019-05-22T08:41:37.156Z,13.33
2019-05-22T08:44:17.585Z,11.43
2019-05-22T08:46:40.215Z,12.60
2019-05-22T08:49:10.369Z,11.53
2019-05-22T08:51:40.059Z,12.73
2019-05-22T08:54:10.106Z,11.23
2019-05-22T08:56:42.854Z,11.40
2019-05-22T08:59:19.470Z,9.97
2019-05-22T09:01:46.505Z,10.77
2019-05-22T09:04:16.526Z,10.73
2019-05-22T09:06:46.835Z,9.70
2019-05-22T09:09:17.150Z,9.90
2019-05-22T09:11:46.840Z,9.70
2019-05-22T09:14:16.619Z,10.27
2019-05-22T09:16:48.149Z,10.67
2019-05-22T09:19:18.129Z,11.20
2019-05-22T09:21:48.251Z,11.33
2019-05-22T09:24:19.682Z,10.33
2019-05-22T09:26:49.484Z,11.23
2019-05-22T09:29:19.305Z,11.37
2019-05-22T09:31:49.237Z,10.33
2019-05-22T09:34:19.394Z,11.10
2019-05-22T09:36:49.176Z,10.17
2019-05-22T09:39:19.806Z,9.97
2019-05-22T09:41:49.655Z,9.63
2019-05-22T09:44:19.784Z,9.63
2019-05-22T09:46:49.749Z,8.47
2019-05-22T09:49:23.625Z,9.77
2019-05-22T09:51:51.541Z,8.90
2019-05-22T09:54:22.106Z,8.63
2019-05-22T09:56:51.965Z,9.53
2019-05-22T09:59:21.670Z,9.27
2019-05-22T10:01:51.383Z,8.20
2019-05-22T10:04:21.909Z,8.67
2019-05-22T10:06:52.035Z,9.27
2019-05-22T10:09:21.975Z,8.97
2019-05-22T10:11:51.782Z,8.30
2019-05-22T10:14:22.018Z,8.00
2019-05-22T10:16:52.168Z,8.60
2019-05-22T10:19:22.201Z,7.87
2019-05-22T10:21:53.106Z,7.77
2019-05-22T10:24:22.898Z,7.47
2019-05-22T10:26:53.132Z,7.13
2019-05-22T10:29:23.053Z,6.77
2019-05-22T10:31:52.982Z,6.40
2019-05-22T10:34:22.764Z,7.00
2019-05-22T10:36:52.551Z,6.37
2019-05-22T10:39:24.864Z,6.23
2019-05-22T10:41:54.839Z,5.23
2019-05-22T10:44:24.760Z,5.40
2019-05-22T10:46:54.588Z,5.23
2019-05-22T10:49:24.323Z,5.40
2019-05-22T10:51:54.123Z,5.17
2019-05-22T10:54:23.892Z,5.63
2019-05-22T10:56:53.806Z,5.80
2019-05-22T10:59:24.059Z,5.23
2019-05-22T11:01:53.892Z,5.50
2019-05-22T11:04:24.679Z,5.63
2019-05-22T11:06:56.204Z,5.57
2019-05-22T11:09:28.299Z,5.90
2019-05-22T11:11:58.120Z,5.23
2019-05-22T11:14:28.346Z,5.63
2019-05-22T11:17:01.344Z,5.70
2019-05-22T11:19:31.342Z,6.57
2019-05-22T11:22:01.654Z,6.57
2019-05-22T11:24:31.764Z,6.30
2019-05-22T11:27:02.211Z,6.40
2019-05-22T11:29:32.074Z,6.20
2019-05-22T11:32:01.903Z,5.57
2019-05-22T11:34:31.901Z,5.23
2019-05-22T11:37:01.661Z,6.17
2019-05-22T11:39:39.450Z,4.90
2019-05-22T11:42:05.919Z,5.63
2019-05-22T11:44:35.931Z,6.30
2019-05-22T11:47:09.351Z,5.73
2019-05-22T11:49:40.021Z,5.23
2019-05-22T11:52:10.908Z,5.03
2019-05-22T11:54:40.823Z,5.33
2019-05-22T11:57:12.051Z,4.80
2019-05-22T11:59:42.722Z,4.80
2019-05-22T12:02:13.418Z,4.50
2019-05-22T12:04:47.990Z,5.27
2019-05-22T12:07:15.744Z,5.10
2019-05-22T12:09:45.581Z,5.13
2019-05-22T12:12:16.419Z,5.10
2019-05-22T12:14:46.429Z,4.83
2019-05-22T12:17:16.418Z,5.10
2019-05-22T12:19:46.497Z,5.33
2019-05-22T12:22:19.801Z,4.70
2019-05-22T12:24:48.723Z,5.20
2019-05-22T12:27:18.507Z,5.40
2019-05-22T12:29:49.806Z,4.33
2019-05-22T12:32:20.641Z,4.37
2019-05-22T12:34:50.423Z,4.70
2019-05-22T12:37:20.448Z,4.83
2019-05-22T12:39:50.534Z,4.80
2019-05-22T12:42:20.887Z,4.83
2019-05-22T12:44:51.016Z,4.63
2019-05-22T12:47:22.082Z,4.70
2019-05-22T12:49:52.840Z,4.50
2019-05-22T12:52:22.576Z,4.60
2019-05-22T12:54:53.433Z,4.80
2019-05-22T12:57:24.951Z,4.17
2019-05-22T12:59:56.042Z,4.40
2019-05-22T13:02:26.728Z,4.50
2019-05-22T13:04:57.959Z,4.43
2019-05-22T13:07:28.527Z,4.40
2019-05-22T13:09:58.690Z,4.63
2019-05-22T13:12:28.525Z,3.93
2019-05-22T13:15:09.183Z,4.20
2019-05-22T13:17:31.350Z,4.43
2019-05-22T13:20:03.172Z,4.27
2019-05-22T13:22:34.666Z,4.03
2019-05-22T13:25:09.520Z,4.50
2019-05-22T13:27:39.903Z,4.50
2019-05-22T13:30:13.099Z,4.33
2019-05-22T13:32:44.685Z,4.00
2019-05-22T13:35:17.852Z,4.40
2019-05-22T13:37:47.990Z,3.93
2019-05-22T13:40:27.612Z,3.90
2019-05-22T13:42:50.510Z,3.77
2019-05-22T13:45:29.303Z,3.90
2019-05-22T13:47:54.125Z,4.23
2019-05-22T13:50:28.292Z,3.77
2019-05-22T13:52:56.272Z,4.00
2019-05-22T13:55:26.651Z,3.80
2019-05-22T13:57:58.241Z,3.67
2019-05-22T14:00:30.903Z,3.70
2019-05-22T14:03:00.394Z,4.27
2019-05-22T14:05:31.128Z,4.17
2019-05-22T14:08:01.542Z,3.73
2019-05-22T14:10:34.083Z,3.50
2019-05-22T14:13:04.487Z,3.20
2019-05-22T14:15:48.829Z,3.10
2019-05-22T14:18:06.593Z,3.80
2019-05-22T14:20:37.738Z,3.77
2019-05-22T14:23:07.722Z,3.53
2019-05-22T14:25:37.885Z,3.73
2019-05-22T14:28:08.773Z,3.23
2019-05-22T14:30:39.060Z,3.47
2019-05-22T14:33:09.234Z,3.40
2019-05-22T14:35:48.461Z,3.43
2019-05-22T14:38:12.908Z,3.70
2019-05-22T14:40:43.217Z,3.60
2019-05-22T14:43:13.498Z,3.10
2019-05-22T14:45:43.726Z,3.03
2019-05-22T14:48:14.955Z,2.60
2019-05-22T14:50:45.565Z,2.87
2019-05-22T14:53:15.851Z,2.70
2019-05-22T14:55:47.243Z,3.10
2019-05-22T14:58:17.925Z,3.33
2019-05-22T15:00:48.098Z,3.57
2019-05-22T15:03:19.640Z,3.57
2019-05-22T15:05:50.402Z,3.20
2019-05-22T15:08:20.258Z,3.00
2019-05-22T15:10:50.438Z,2.70
2019-05-22T15:13:20.412Z,3.10
2019-05-22T15:15:50.403Z,3.00
2019-05-22T15:18:20.257Z,3.20
2019-05-22T15:20:58.693Z,2.87
2019-05-22T15:23:28.812Z,3.20
2019-05-22T15:26:00.109Z,3.20
2019-05-22T15:28:31.025Z,3.43
2019-05-22T15:31:02.013Z,3.10
2019-05-22T15:33:32.971Z,3.23
2019-05-22T15:36:06.973Z,2.77
2019-05-22T15:38:39.872Z,3.03
2019-05-22T15:41:11.128Z,3.10
2019-05-22T15:43:44.701Z,2.50
2019-05-22T15:46:15.659Z,2.83
2019-05-22T15:48:47.544Z,2.70
2019-05-22T15:51:21.205Z,4.17
2019-05-22T15:53:52.466Z,4.43
2019-05-22T15:56:23.632Z,2.53
2019-05-22T15:58:55.637Z,2.50
2019-05-22T16:01:26.580Z,2.33
2019-05-22T16:03:58.127Z,1.97
2019-05-22T16:06:30.693Z,2.97
2019-05-22T16:09:02.240Z,2.90
2019-05-22T16:11:34.354Z,2.13
2019-05-22T16:14:05.258Z,2.20
2019-05-22T16:16:36.570Z,1.93
2019-05-22T16:19:09.155Z,2.10
2019-05-22T16:21:42.106Z,2.40
2019-05-22T16:24:13.693Z,2.10
2019-05-22T16:26:47.329Z,2.27
2019-05-22T16:32:47.670Z,2.80
2019-05-22T16:35:27.238Z,3.00
2019-05-22T16:38:04.502Z,2.10
2019-05-22T16:40:39.687Z,2.33
2019-05-22T16:43:14.916Z,2.80
2019-05-22T16:45:45.109Z,2.43
2019-05-22T16:48:28.598Z,2.90
2019-05-22T16:50:48.376Z,2.73
2019-05-22T16:53:19.429Z,2.43
2019-05-22T16:55:49.897Z,2.80
2019-05-22T16:58:20.857Z,2.47
2019-05-22T17:00:51.055Z,2.57
2019-05-22T17:03:21.736Z,2.73
2019-05-22T17:05:51.572Z,2.67
2019-05-22T17:08:22.686Z,2.70
2019-05-22T17:10:53.221Z,2.70
2019-05-22T17:13:23.728Z,3.13
2019-05-22T17:15:53.951Z,2.20
2019-05-22T17:18:24.578Z,2.40
2019-05-22T17:20:55.904Z,2.10
2019-05-22T17:23:26.509Z,2.93
2019-05-22T17:25:58.279Z,2.30
2019-05-22T17:28:29.310Z,2.40
2019-05-22T17:30:59.958Z,1.87
2019-05-22T17:33:31.635Z,2.40
2019-05-22T17:36:05.378Z,2.10
2019-05-22T17:38:34.394Z,2.00
2019-05-22T17:41:05.134Z,2.10
2019-05-22T17:43:36.656Z,2.30
2019-05-22T17:46:06.851Z,2.17
2019-05-22T17:48:38.203Z,2.10
2019-05-22T17:51:08.320Z,2.00
2019-05-22T17:53:38.150Z,2.27
2019-05-22T17:56:08.011Z,2.17
2019-05-22T17:58:38.406Z,1.93
2019-05-22T18:01:09.322Z,1.93
2019-05-22T18:03:39.274Z,2.30
2019-05-22T18:06:09.618Z,2.40
2019-05-22T18:08:39.769Z,2.07
2019-05-22T18:11:10.789Z,1.90
2019-05-22T18:14:00.892Z,1.93
2019-05-22T18:16:32.457Z,2.07
2019-05-22T18:19:02.816Z,2.00
2019-05-22T18:21:33.909Z,2.00
2019-05-22T18:24:04.335Z,1.90
2019-05-22T18:26:34.487Z,2.10
2019-05-22T18:29:04.590Z,1.67
2019-05-22T18:31:34.736Z,2.03
2019-05-22T18:34:04.683Z,1.83
2019-05-22T18:36:34.594Z,1.80
2019-05-22T18:39:06.698Z,2.00
2019-05-22T18:41:36.400Z,2.27
2019-05-22T18:44:06.698Z,2.07
2019-05-22T18:46:36.594Z,2.10
2019-05-22T18:49:06.348Z,1.80
2019-05-22T18:51:36.178Z,1.77
2019-05-22T18:54:05.994Z,1.90
2019-05-22T18:56:35.939Z,2.33
2019-05-22T18:59:05.855Z,2.57
2019-05-22T19:01:35.707Z,2.23
2019-05-22T19:04:05.744Z,2.00
2019-05-22T19:06:35.951Z,2.07
2019-05-22T19:09:08.686Z,2.10
2019-05-22T19:11:38.875Z,1.97
2019-05-22T19:14:09.228Z,1.60
2019-05-22T19:16:39.154Z,1.50
2019-05-22T19:19:09.304Z,2.13
2019-05-22T19:21:39.173Z,1.80
2019-05-22T19:24:09.202Z,1.90
2019-05-22T19:26:39.342Z,2.00
2019-05-22T19:29:09.785Z,2.13
2019-05-22T19:31:39.621Z,1.90
2019-05-22T19:34:11.184Z,1.90
2019-05-22T19:36:42.758Z,1.77
2019-05-22T19:39:15.812Z,2.03
2019-05-22T19:41:59.890Z,1.80
2019-05-22T19:44:17.933Z,1.90
2019-05-22T19:46:48.444Z,2.07
2019-05-22T19:49:24.425Z,1.90
2019-05-22T19:51:56.251Z,1.97
2019-05-22T19:54:26.882Z,1.87
2019-05-22T19:56:57.500Z,1.80
2019-05-22T19:59:27.350Z,2.03
2019-05-22T20:01:57.714Z,1.80
2019-05-22T20:04:28.347Z,1.73
2019-05-22T20:07:09.794Z,2.13
2019-05-22T20:09:45.024Z,1.87
2019-05-22T20:12:19.412Z,1.87
2019-05-22T20:14:50.356Z,1.70
2019-05-22T20:17:20.375Z,1.70
2019-05-22T20:19:53.855Z,1.87
2019-05-22T20:22:22.809Z,1.90
2019-05-22T20:24:53.429Z,1.70
2019-05-22T20:27:24.168Z,1.70
2019-05-22T20:29:54.238Z,1.80
2019-05-22T20:32:24.135Z,1.80
2019-05-22T20:34:54.810Z,2.67
2019-05-22T20:37:24.570Z,1.60
2019-05-22T20:39:54.503Z,1.50
2019-05-22T20:42:24.652Z,1.80
2019-05-22T20:44:54.718Z,1.83
2019-05-22T20:47:26.995Z,1.80
2019-05-22T20:49:57.585Z,2.00
2019-05-22T20:52:30.244Z,2.23
2019-05-22T20:55:02.444Z,1.80
2019-05-22T20:57:33.684Z,1.70
2019-05-22T21:00:06.775Z,1.87
2019-05-22T21:02:40.179Z,1.50
2019-05-22T21:05:13.324Z,1.90
2019-05-22T21:07:49.173Z,2.27
2019-05-22T21:10:23.422Z,2.30
2019-05-22T21:12:54.560Z,1.70
2019-05-22T21:15:24.731Z,2.03
2019-05-22T21:17:56.284Z,1.90
2019-05-22T21:20:28.205Z,1.70
2019-05-22T21:22:59.245Z,1.93
2019-05-22T21:25:29.510Z,1.80
2019-05-22T21:27:59.461Z,1.93
2019-05-22T21:30:29.585Z,2.00
2019-05-22T21:33:00.011Z,2.60
2019-05-22T21:35:30.029Z,2.40
2019-05-22T21:37:59.914Z,2.30
2019-05-22T21:40:29.660Z,2.37
2019-05-22T21:43:00.924Z,2.40
2019-05-22T21:45:31.350Z,2.30
2019-05-22T21:48:01.278Z,2.60
2019-05-22T21:50:32.267Z,2.40
2019-05-22T21:53:03.120Z,2.37
2019-05-22T21:55:33.294Z,2.23
2019-05-22T21:58:04.779Z,2.50
2019-05-22T22:00:42.190Z,2.43
2019-05-22T22:03:19.689Z,2.40
2019-05-22T22:05:50.295Z,2.50
2019-05-22T22:08:20.828Z,2.70
2019-05-22T22:10:51.378Z,2.83
2019-05-22T22:13:21.295Z,2.67
2019-05-22T22:15:51.575Z,2.57
2019-05-22T22:18:24.628Z,3.30
2019-05-22T22:20:53.926Z,3.17
2019-05-22T22:23:25.321Z,3.10
2019-05-22T22:25:55.362Z,2.70
2019-05-22T22:28:25.897Z,2.97
2019-05-22T22:31:10.370Z,3.30
2019-05-22T22:33:42.413Z,3.10
2019-05-22T22:36:12.431Z,3.00
2019-05-22T22:38:43.803Z,3.23
2019-05-22T22:41:14.177Z,3.10
2019-05-22T22:43:48.614Z,2.90
2019-05-22T22:46:31.886Z,3.10
2019-05-22T22:49:03.403Z,3.20
2019-05-22T22:51:35.225Z,2.63
2019-05-22T22:54:06.922Z,2.57
2019-05-22T22:56:37.667Z,2.67
2019-05-22T22:59:08.260Z,2.73
2019-05-22T23:01:41.455Z,3.10
2019-05-22T23:04:12.614Z,2.70
2019-05-22T23:06:43.017Z,2.63
2019-05-22T23:09:12.872Z,2.80
2019-05-22T23:11:43.508Z,2.80
2019-05-22T23:14:15.691Z,2.40
2019-05-22T23:16:46.193Z,2.13
2019-05-22T23:19:21.707Z,2.47
2019-05-22T23:21:50.432Z,3.00
2019-05-22T23:24:20.782Z,2.70
2019-05-22T23:26:51.944Z,3.00
2019-05-22T23:29:22.495Z,2.70
2019-05-22T23:31:54.523Z,2.70
2019-05-22T23:34:24.604Z,2.43
2019-05-22T23:36:55.469Z,2.77
2019-05-22T23:39:25.522Z,3.17
2019-05-22T23:41:57.322Z,2.40
2019-05-22T23:44:28.435Z,2.73
2019-05-22T23:47:01.538Z,3.20
2019-05-22T23:49:33.882Z,2.27
2019-05-22T23:52:04.368Z,2.30
2019-05-22T23:54:35.024Z,3.03
2019-05-22T23:57:06.006Z,2.87
2019-05-22T23:59:36.739Z,2.70
